sensor_id;sensor_type;location;lat;lon;timestamp;P1;durP1;ratioP1;P2;durP2;ratioP2
22449;SDS011;11392;57.390;-2.468;2023-04-01T00:00:00;2.15;;;0.80;;
22449;SDS011;11392;57.390;-2.468;2023-04-01T00:02:27;2.30;;;1.17;;
22449;SDS011;11392;57.390;-2.468;2023-04-01T00:04:54;1.60;;;0.98;;
22449;SDS011;11392;57.390;-2.468;2023-04-01T00:07:21;2.85;;;0.80;;
22449;SDS011;11392;57.390;-2.468;2023-04-01T00:09:48;5.20;;;1.33;;
22449;SDS011;11392;57.390;-2.468;2023-04-01T00:12:15;2.00;;;0.80;;
22449;SDS011;11392;57.390;-2.468;2023-04-01T00:14:42;5.20;;;1.30;;
22449;SDS011;11392;57.390;-2.468;2023-04-01T00:17:10;4.25;;;1.20;;
22449;SDS011;11392;57.390;-2.468;2023-04-01T00:19:36;4.80;;;1.92;;
22449;SDS011;11392;57.390;-2.468;2023-04-01T00:22:03;7.50;;;1.33;;
22449;SDS011;11392;57.390;-2.468;2023-04-01T00:24:31;1.83;;;1.02;;
22449;SDS011;11392;57.390;-2.468;2023-04-01T00:26:58;3.28;;;1.15;;
22449;SDS011;11392;57.390;-2.468;2023-04-01T00:29:25;1.85;;;1.23;;
22449;SDS011;11392;57.390;-2.468;2023-04-01T00:31:58;4.40;;;1.20;;
22449;SDS011;11392;57.390;-2.468;2023-04-01T00:34:25;3.83;;;1.50;;
22449;SDS011;11392;57.390;-2.468;2023-04-01T00:36:53;4.20;;;1.50;;
22449;SDS011;11392;57.390;-2.468;2023-04-01T00:39:20;3.63;;;1.40;;
22449;SDS011;11392;57.390;-2.468;2023-04-01T00:41:47;7.93;;;1.63;;
22449;SDS011;11392;57.390;-2.468;2023-04-01T00:44:19;2.78;;;1.70;;
22449;SDS011;11392;57.390;-2.468;2023-04-01T00:46:49;5.25;;;1.60;;
22449;SDS011;11392;57.390;-2.468;2023-04-01T00:49:17;5.10;;;2.20;;
22449;SDS011;11392;57.390;-2.468;2023-04-01T00:51:49;7.15;;;1.65;;
22449;SDS011;11392;57.390;-2.468;2023-04-01T00:54:18;9.13;;;2.28;;
22449;SDS011;11392;57.390;-2.468;2023-04-01T00:56:51;7.40;;;1.75;;
22449;SDS011;11392;57.390;-2.468;2023-04-01T00:59:29;5.85;;;1.70;;
22449;SDS011;11392;57.390;-2.468;2023-04-01T01:02:05;6.25;;;1.52;;
22449;SDS011;11392;57.390;-2.468;2023-04-01T01:04:35;2.85;;;1.40;;
22449;SDS011;11392;57.390;-2.468;2023-04-01T01:17:44;6.47;;;1.40;;
22449;SDS011;11392;57.390;-2.468;2023-04-01T01:23:06;2.80;;;1.38;;
22449;SDS011;11392;57.390;-2.468;2023-04-01T01:29:36;5.80;;;1.25;;
22449;SDS011;11392;57.390;-2.468;2023-04-01T01:36:57;4.95;;;2.20;;
22449;SDS011;11392;57.390;-2.468;2023-04-01T01:39:30;3.28;;;1.00;;
22449;SDS011;11392;57.390;-2.468;2023-04-01T01:42:04;2.90;;;1.23;;
22449;SDS011;11392;57.390;-2.468;2023-04-01T01:44:33;2.97;;;1.73;;
22449;SDS011;11392;57.390;-2.468;2023-04-01T01:47:02;7.65;;;1.92;;
22449;SDS011;11392;57.390;-2.468;2023-04-01T01:49:29;5.20;;;2.08;;
22449;SDS011;11392;57.390;-2.468;2023-04-01T01:51:59;4.00;;;2.00;;
22449;SDS011;11392;57.390;-2.468;2023-04-01T01:54:26;7.72;;;1.73;;
22449;SDS011;11392;57.390;-2.468;2023-04-01T01:56:59;5.65;;;1.85;;
22449;SDS011;11392;57.390;-2.468;2023-04-01T01:59:33;5.30;;;1.80;;
22449;SDS011;11392;57.390;-2.468;2023-04-01T02:02:04;7.43;;;1.83;;
22449;SDS011;11392;57.390;-2.468;2023-04-01T02:04:35;6.30;;;2.30;;
22449;SDS011;11392;57.390;-2.468;2023-04-01T02:07:10;6.90;;;2.22;;
22449;SDS011;11392;57.390;-2.468;2023-04-01T02:09:49;11.20;;;2.47;;
22449;SDS011;11392;57.390;-2.468;2023-04-01T02:12:18;6.82;;;2.13;;
22449;SDS011;11392;57.390;-2.468;2023-04-01T02:14:50;5.10;;;2.00;;
22449;SDS011;11392;57.390;-2.468;2023-04-01T02:17:29;8.32;;;3.60;;
22449;SDS011;11392;57.390;-2.468;2023-04-01T02:19:59;7.53;;;2.50;;
22449;SDS011;11392;57.390;-2.468;2023-04-01T02:22:40;7.65;;;2.75;;
22449;SDS011;11392;57.390;-2.468;2023-04-01T02:25:12;9.60;;;2.83;;
22449;SDS011;11392;57.390;-2.468;2023-04-01T02:27:51;6.80;;;3.03;;
22449;SDS011;11392;57.390;-2.468;2023-04-01T02:30:19;4.93;;;2.60;;
22449;SDS011;11392;57.390;-2.468;2023-04-01T02:32:46;4.10;;;1.92;;
22449;SDS011;11392;57.390;-2.468;2023-04-01T02:35:16;4.32;;;1.50;;
22449;SDS011;11392;57.390;-2.468;2023-04-01T02:37:44;4.78;;;1.83;;
22449;SDS011;11392;57.390;-2.468;2023-04-01T02:40:15;5.57;;;1.88;;
22449;SDS011;11392;57.390;-2.468;2023-04-01T02:42:43;6.38;;;2.15;;
22449;SDS011;11392;57.390;-2.468;2023-04-01T02:45:12;7.68;;;1.95;;
22449;SDS011;11392;57.390;-2.468;2023-04-01T02:47:40;10.27;;;2.85;;
22449;SDS011;11392;57.390;-2.468;2023-04-01T02:50:07;7.07;;;2.70;;
22449;SDS011;11392;57.390;-2.468;2023-04-01T02:52:35;9.32;;;2.90;;
22449;SDS011;11392;57.390;-2.468;2023-04-01T02:55:02;5.70;;;2.30;;
22449;SDS011;11392;57.390;-2.468;2023-04-01T02:57:30;7.38;;;2.63;;
22449;SDS011;11392;57.390;-2.468;2023-04-01T02:59:57;10.60;;;3.67;;
22449;SDS011;11392;57.390;-2.468;2023-04-01T03:02:24;12.20;;;3.28;;
22449;SDS011;11392;57.390;-2.468;2023-04-01T03:04:51;5.25;;;2.10;;
22449;SDS011;11392;57.390;-2.468;2023-04-01T03:07:18;10.07;;;3.17;;
22449;SDS011;11392;57.390;-2.468;2023-04-01T03:09:45;9.07;;;3.08;;
22449;SDS011;11392;57.390;-2.468;2023-04-01T03:12:12;10.02;;;2.88;;
22449;SDS011;11392;57.390;-2.468;2023-04-01T03:14:39;7.30;;;2.85;;
22449;SDS011;11392;57.390;-2.468;2023-04-01T03:17:06;10.00;;;2.33;;
22449;SDS011;11392;57.390;-2.468;2023-04-01T03:19:33;11.20;;;3.45;;
22449;SDS011;11392;57.390;-2.468;2023-04-01T03:22:00;9.45;;;3.10;;
22449;SDS011;11392;57.390;-2.468;2023-04-01T03:24:27;10.73;;;3.17;;
22449;SDS011;11392;57.390;-2.468;2023-04-01T03:26:54;10.50;;;3.28;;
22449;SDS011;11392;57.390;-2.468;2023-04-01T03:29:21;9.30;;;3.40;;
22449;SDS011;11392;57.390;-2.468;2023-04-01T03:31:48;13.95;;;3.40;;
22449;SDS011;11392;57.390;-2.468;2023-04-01T03:34:15;11.10;;;3.20;;
22449;SDS011;11392;57.390;-2.468;2023-04-01T03:36:42;10.43;;;2.70;;
22449;SDS011;11392;57.390;-2.468;2023-04-01T03:39:09;8.27;;;3.17;;
22449;SDS011;11392;57.390;-2.468;2023-04-01T03:41:36;11.93;;;3.53;;
22449;SDS011;11392;57.390;-2.468;2023-04-01T03:44:04;10.15;;;3.45;;
22449;SDS011;11392;57.390;-2.468;2023-04-01T03:46:31;5.22;;;2.75;;
22449;SDS011;11392;57.390;-2.468;2023-04-01T03:48:58;8.30;;;2.63;;
22449;SDS011;11392;57.390;-2.468;2023-04-01T03:51:25;6.32;;;2.88;;
22449;SDS011;11392;57.390;-2.468;2023-04-01T03:53:52;8.43;;;2.90;;
22449;SDS011;11392;57.390;-2.468;2023-04-01T03:56:20;9.95;;;2.97;;
22449;SDS011;11392;57.390;-2.468;2023-04-01T03:58:47;8.65;;;3.08;;
22449;SDS011;11392;57.390;-2.468;2023-04-01T04:01:15;7.30;;;2.83;;
22449;SDS011;11392;57.390;-2.468;2023-04-01T04:03:43;5.60;;;2.28;;
22449;SDS011;11392;57.390;-2.468;2023-04-01T04:06:11;6.93;;;2.58;;
22449;SDS011;11392;57.390;-2.468;2023-04-01T04:08:39;6.30;;;2.65;;
22449;SDS011;11392;57.390;-2.468;2023-04-01T04:11:07;7.05;;;2.38;;
22449;SDS011;11392;57.390;-2.468;2023-04-01T04:13:34;3.97;;;1.77;;
22449;SDS011;11392;57.390;-2.468;2023-04-01T04:16:02;8.27;;;2.30;;
22449;SDS011;11392;57.390;-2.468;2023-04-01T04:18:30;8.40;;;3.17;;
22449;SDS011;11392;57.390;-2.468;2023-04-01T04:20:56;8.23;;;3.08;;
22449;SDS011;11392;57.390;-2.468;2023-04-01T04:23:24;6.63;;;2.67;;
22449;SDS011;11392;57.390;-2.468;2023-04-01T04:25:58;10.13;;;2.80;;
22449;SDS011;11392;57.390;-2.468;2023-04-01T04:28:36;9.50;;;2.75;;
22449;SDS011;11392;57.390;-2.468;2023-04-01T04:31:03;7.95;;;2.20;;
22449;SDS011;11392;57.390;-2.468;2023-04-01T04:33:31;5.18;;;2.03;;
22449;SDS011;11392;57.390;-2.468;2023-04-01T04:35:59;4.47;;;2.05;;
22449;SDS011;11392;57.390;-2.468;2023-04-01T04:38:26;5.15;;;2.50;;
22449;SDS011;11392;57.390;-2.468;2023-04-01T04:40:54;5.07;;;1.80;;
22449;SDS011;11392;57.390;-2.468;2023-04-01T04:43:21;7.30;;;2.92;;
22449;SDS011;11392;57.390;-2.468;2023-04-01T04:45:49;5.00;;;2.28;;
22449;SDS011;11392;57.390;-2.468;2023-04-01T04:48:16;13.63;;;2.90;;
22449;SDS011;11392;57.390;-2.468;2023-04-01T04:50:47;9.82;;;2.97;;
22449;SDS011;11392;57.390;-2.468;2023-04-01T04:53:16;5.43;;;2.13;;
22449;SDS011;11392;57.390;-2.468;2023-04-01T04:55:45;7.35;;;2.75;;
22449;SDS011;11392;57.390;-2.468;2023-04-01T04:58:16;7.25;;;2.22;;
22449;SDS011;11392;57.390;-2.468;2023-04-01T05:00:44;9.07;;;2.60;;
22449;SDS011;11392;57.390;-2.468;2023-04-01T05:03:13;7.60;;;2.55;;
22449;SDS011;11392;57.390;-2.468;2023-04-01T05:05:47;5.65;;;2.08;;
22449;SDS011;11392;57.390;-2.468;2023-04-01T05:08:18;4.13;;;2.28;;
22449;SDS011;11392;57.390;-2.468;2023-04-01T05:10:46;6.15;;;2.25;;
22449;SDS011;11392;57.390;-2.468;2023-04-01T05:13:13;5.63;;;2.83;;
22449;SDS011;11392;57.390;-2.468;2023-04-01T05:15:40;5.90;;;2.20;;
22449;SDS011;11392;57.390;-2.468;2023-04-01T05:18:07;5.63;;;2.60;;
22449;SDS011;11392;57.390;-2.468;2023-04-01T05:20:34;10.18;;;2.65;;
22449;SDS011;11392;57.390;-2.468;2023-04-01T05:23:01;8.10;;;3.20;;
22449;SDS011;11392;57.390;-2.468;2023-04-01T05:25:28;9.52;;;3.03;;
22449;SDS011;11392;57.390;-2.468;2023-04-01T05:27:56;3.97;;;2.25;;
22449;SDS011;11392;57.390;-2.468;2023-04-01T05:30:23;4.35;;;2.03;;
22449;SDS011;11392;57.390;-2.468;2023-04-01T05:32:50;5.07;;;2.33;;
22449;SDS011;11392;57.390;-2.468;2023-04-01T05:35:17;6.18;;;2.40;;
22449;SDS011;11392;57.390;-2.468;2023-04-01T05:37:44;6.00;;;2.60;;
22449;SDS011;11392;57.390;-2.468;2023-04-01T05:40:11;2.47;;;1.75;;
22449;SDS011;11392;57.390;-2.468;2023-04-01T05:42:38;5.90;;;2.30;;
22449;SDS011;11392;57.390;-2.468;2023-04-01T05:45:06;3.88;;;2.05;;
22449;SDS011;11392;57.390;-2.468;2023-04-01T05:47:33;4.72;;;2.00;;
22449;SDS011;11392;57.390;-2.468;2023-04-01T05:50:00;5.47;;;1.75;;
22449;SDS011;11392;57.390;-2.468;2023-04-01T05:52:27;7.05;;;2.55;;
22449;SDS011;11392;57.390;-2.468;2023-04-01T05:54:54;4.35;;;2.25;;
22449;SDS011;11392;57.390;-2.468;2023-04-01T05:57:21;4.93;;;2.33;;
22449;SDS011;11392;57.390;-2.468;2023-04-01T05:59:48;5.88;;;1.90;;
22449;SDS011;11392;57.390;-2.468;2023-04-01T06:02:16;4.68;;;2.70;;
22449;SDS011;11392;57.390;-2.468;2023-04-01T06:04:43;6.65;;;2.30;;
22449;SDS011;11392;57.390;-2.468;2023-04-01T06:07:15;5.68;;;2.10;;
22449;SDS011;11392;57.390;-2.468;2023-04-01T06:09:44;8.30;;;2.17;;
22449;SDS011;11392;57.390;-2.468;2023-04-01T06:25:55;4.72;;;2.00;;
22449;SDS011;11392;57.390;-2.468;2023-04-01T06:56:27;3.95;;;1.60;;
22449;SDS011;11392;57.390;-2.468;2023-04-01T06:59:00;3.95;;;1.70;;
22449;SDS011;11392;57.390;-2.468;2023-04-01T07:01:51;5.95;;;2.28;;
22449;SDS011;11392;57.390;-2.468;2023-04-01T07:06:56;8.13;;;2.40;;
22449;SDS011;11392;57.390;-2.468;2023-04-01T07:09:43;9.32;;;2.70;;
22449;SDS011;11392;57.390;-2.468;2023-04-01T07:15:12;4.50;;;1.98;;
22449;SDS011;11392;57.390;-2.468;2023-04-01T07:17:43;7.35;;;2.75;;
22449;SDS011;11392;57.390;-2.468;2023-04-01T07:20:17;7.72;;;2.17;;
22449;SDS011;11392;57.390;-2.468;2023-04-01T07:22:47;13.38;;;3.53;;
22449;SDS011;11392;57.390;-2.468;2023-04-01T07:25:17;6.75;;;2.00;;
22449;SDS011;11392;57.390;-2.468;2023-04-01T07:28:04;4.95;;;1.65;;
22449;SDS011;11392;57.390;-2.468;2023-04-01T07:33:38;10.40;;;3.10;;
22449;SDS011;11392;57.390;-2.468;2023-04-01T07:36:14;5.32;;;2.08;;
22449;SDS011;11392;57.390;-2.468;2023-04-01T07:41:36;4.65;;;2.13;;
22449;SDS011;11392;57.390;-2.468;2023-04-01T07:44:09;5.80;;;2.47;;
22449;SDS011;11392;57.390;-2.468;2023-04-01T07:49:51;8.30;;;2.63;;
22449;SDS011;11392;57.390;-2.468;2023-04-01T08:04:17;8.55;;;2.60;;
22449;SDS011;11392;57.390;-2.468;2023-04-01T08:07:10;7.85;;;2.60;;
22449;SDS011;11392;57.390;-2.468;2023-04-01T08:09:51;11.52;;;3.72;;
22449;SDS011;11392;57.390;-2.468;2023-04-01T08:12:37;7.53;;;2.80;;
22449;SDS011;11392;57.390;-2.468;2023-04-01T08:15:15;8.38;;;2.90;;
22449;SDS011;11392;57.390;-2.468;2023-04-01T08:18:03;12.32;;;3.13;;
22449;SDS011;11392;57.390;-2.468;2023-04-01T08:20:56;11.18;;;3.20;;
22449;SDS011;11392;57.390;-2.468;2023-04-01T08:29:14;10.48;;;3.75;;
22449;SDS011;11392;57.390;-2.468;2023-04-01T08:31:45;10.10;;;2.85;;
22449;SDS011;11392;57.390;-2.468;2023-04-01T08:34:23;12.90;;;4.30;;
22449;SDS011;11392;57.390;-2.468;2023-04-01T08:36:57;9.68;;;3.10;;
22449;SDS011;11392;57.390;-2.468;2023-04-01T08:43:04;8.43;;;3.13;;
22449;SDS011;11392;57.390;-2.468;2023-04-01T09:11:05;20.75;;;4.40;;
22449;SDS011;11392;57.390;-2.468;2023-04-01T09:13:48;10.65;;;3.38;;
22449;SDS011;11392;57.390;-2.468;2023-04-01T09:19:15;16.65;;;3.95;;
22449;SDS011;11392;57.390;-2.468;2023-04-01T09:22:06;14.80;;;3.78;;
22449;SDS011;11392;57.390;-2.468;2023-04-01T09:44:37;17.98;;;4.82;;
22449;SDS011;11392;57.390;-2.468;2023-04-01T09:58:34;13.30;;;3.78;;
22449;SDS011;11392;57.390;-2.468;2023-04-01T10:01:13;18.45;;;6.22;;
22449;SDS011;11392;57.390;-2.468;2023-04-01T10:31:20;14.32;;;4.38;;
22449;SDS011;11392;57.390;-2.468;2023-04-01T10:34:08;13.45;;;3.95;;
22449;SDS011;11392;57.390;-2.468;2023-04-01T10:50:38;16.00;;;3.40;;
22449;SDS011;11392;57.390;-2.468;2023-04-01T10:53:46;16.95;;;3.47;;
22449;SDS011;11392;57.390;-2.468;2023-04-01T11:02:12;12.18;;;3.63;;
22449;SDS011;11392;57.390;-2.468;2023-04-01T11:21:45;12.35;;;3.78;;
22449;SDS011;11392;57.390;-2.468;2023-04-01T11:30:19;15.00;;;3.67;;
22449;SDS011;11392;57.390;-2.468;2023-04-01T11:43:56;12.32;;;3.70;;
22449;SDS011;11392;57.390;-2.468;2023-04-01T11:57:17;20.73;;;3.70;;
22449;SDS011;11392;57.390;-2.468;2023-04-01T12:00:21;10.38;;;4.28;;
22449;SDS011;11392;57.390;-2.468;2023-04-01T12:27:38;15.45;;;3.40;;
22449;SDS011;11392;57.390;-2.468;2023-04-01T12:30:37;12.82;;;3.50;;
22449;SDS011;11392;57.390;-2.468;2023-04-01T12:33:13;7.10;;;2.60;;
22449;SDS011;11392;57.390;-2.468;2023-04-01T12:42:36;8.98;;;2.53;;
22449;SDS011;11392;57.390;-2.468;2023-04-01T12:59:25;10.52;;;3.17;;
22449;SDS011;11392;57.390;-2.468;2023-04-01T13:04:50;10.93;;;3.72;;
22449;SDS011;11392;57.390;-2.468;2023-04-01T13:18:17;13.30;;;4.05;;
22449;SDS011;11392;57.390;-2.468;2023-04-01T13:21:01;11.80;;;3.85;;
22449;SDS011;11392;57.390;-2.468;2023-04-01T13:34:03;13.02;;;3.33;;
22449;SDS011;11392;57.390;-2.468;2023-04-01T13:36:59;6.85;;;2.90;;
22449;SDS011;11392;57.390;-2.468;2023-04-01T13:39:54;9.10;;;2.92;;
22449;SDS011;11392;57.390;-2.468;2023-04-01T13:42:37;13.18;;;3.72;;
22449;SDS011;11392;57.390;-2.468;2023-04-01T13:45:14;6.78;;;3.05;;
22449;SDS011;11392;57.390;-2.468;2023-04-01T13:47:50;9.45;;;3.30;;
22449;SDS011;11392;57.390;-2.468;2023-04-01T13:50:37;10.18;;;3.50;;
22449;SDS011;11392;57.390;-2.468;2023-04-01T13:56:34;11.13;;;3.35;;
22449;SDS011;11392;57.390;-2.468;2023-04-01T14:15:54;15.55;;;4.65;;
22449;SDS011;11392;57.390;-2.468;2023-04-01T14:21:38;15.30;;;4.18;;
22449;SDS011;11392;57.390;-2.468;2023-04-01T14:38:12;11.75;;;3.92;;
22449;SDS011;11392;57.390;-2.468;2023-04-01T14:50:08;11.18;;;3.78;;
22449;SDS011;11392;57.390;-2.468;2023-04-01T15:00:47;12.73;;;4.10;;
22449;SDS011;11392;57.390;-2.468;2023-04-01T15:03:28;15.93;;;4.05;;
22449;SDS011;11392;57.390;-2.468;2023-04-01T15:23:23;15.13;;;3.40;;
22449;SDS011;11392;57.390;-2.468;2023-04-01T15:26:26;11.98;;;4.28;;
22449;SDS011;11392;57.390;-2.468;2023-04-01T15:29:19;18.13;;;4.05;;
22449;SDS011;11392;57.390;-2.468;2023-04-01T15:40:24;16.35;;;4.47;;
22449;SDS011;11392;57.390;-2.468;2023-04-01T15:43:15;17.65;;;4.35;;
22449;SDS011;11392;57.390;-2.468;2023-04-01T15:45:57;13.40;;;4.03;;
22449;SDS011;11392;57.390;-2.468;2023-04-01T16:04:47;17.70;;;5.00;;
22449;SDS011;11392;57.390;-2.468;2023-04-01T16:21:38;16.73;;;4.70;;
22449;SDS011;11392;57.390;-2.468;2023-04-01T16:27:24;18.05;;;5.05;;
22449;SDS011;11392;57.390;-2.468;2023-04-01T16:33:27;17.73;;;5.65;;
22449;SDS011;11392;57.390;-2.468;2023-04-01T16:44:08;17.52;;;5.25;;
22449;SDS011;11392;57.390;-2.468;2023-04-01T16:46:39;16.33;;;4.72;;
22449;SDS011;11392;57.390;-2.468;2023-04-01T17:02:43;20.50;;;4.90;;
22449;SDS011;11392;57.390;-2.468;2023-04-01T17:05:18;21.50;;;4.97;;
22449;SDS011;11392;57.390;-2.468;2023-04-01T17:08:07;21.58;;;4.95;;
22449;SDS011;11392;57.390;-2.468;2023-04-01T17:13:46;13.05;;;4.07;;
22449;SDS011;11392;57.390;-2.468;2023-04-01T17:30:17;21.50;;;4.65;;
22449;SDS011;11392;57.390;-2.468;2023-04-01T17:35:29;20.17;;;5.80;;
22449;SDS011;11392;57.390;-2.468;2023-04-01T17:40:49;22.73;;;5.75;;
22449;SDS011;11392;57.390;-2.468;2023-04-01T17:45:58;23.75;;;5.30;;
22449;SDS011;11392;57.390;-2.468;2023-04-01T17:51:36;28.40;;;6.53;;
22449;SDS011;11392;57.390;-2.468;2023-04-01T17:54:21;21.77;;;6.28;;
22449;SDS011;11392;57.390;-2.468;2023-04-01T18:02:48;31.02;;;7.53;;
22449;SDS011;11392;57.390;-2.468;2023-04-01T18:05:39;20.42;;;6.25;;
22449;SDS011;11392;57.390;-2.468;2023-04-01T18:08:31;17.52;;;5.50;;
22449;SDS011;11392;57.390;-2.468;2023-04-01T18:11:05;24.23;;;5.65;;
22449;SDS011;11392;57.390;-2.468;2023-04-01T18:19:02;21.92;;;5.85;;
22449;SDS011;11392;57.390;-2.468;2023-04-01T18:27:47;20.02;;;6.93;;
22449;SDS011;11392;57.390;-2.468;2023-04-01T18:30:30;17.63;;;5.50;;
22449;SDS011;11392;57.390;-2.468;2023-04-01T18:33:02;18.27;;;5.40;;
22449;SDS011;11392;57.390;-2.468;2023-04-01T18:38:30;18.15;;;5.43;;
22449;SDS011;11392;57.390;-2.468;2023-04-01T18:41:11;20.05;;;6.63;;
22449;SDS011;11392;57.390;-2.468;2023-04-01T18:43:48;15.98;;;4.65;;
22449;SDS011;11392;57.390;-2.468;2023-04-01T18:46:26;19.10;;;5.18;;
22449;SDS011;11392;57.390;-2.468;2023-04-01T18:49:21;10.98;;;3.30;;
22449;SDS011;11392;57.390;-2.468;2023-04-01T18:52:02;15.93;;;4.95;;
22449;SDS011;11392;57.390;-2.468;2023-04-01T18:54:44;17.52;;;4.60;;
22449;SDS011;11392;57.390;-2.468;2023-04-01T18:57:18;11.35;;;4.45;;
22449;SDS011;11392;57.390;-2.468;2023-04-01T18:59:51;8.23;;;3.22;;
22449;SDS011;11392;57.390;-2.468;2023-04-01T19:02:43;12.35;;;3.55;;
22449;SDS011;11392;57.390;-2.468;2023-04-01T19:05:18;19.48;;;4.28;;
22449;SDS011;11392;57.390;-2.468;2023-04-01T19:08:22;14.73;;;4.20;;
22449;SDS011;11392;57.390;-2.468;2023-04-01T19:17:45;11.10;;;3.50;;
22449;SDS011;11392;57.390;-2.468;2023-04-01T19:22:20;12.05;;;3.20;;
22449;SDS011;11392;57.390;-2.468;2023-04-01T19:27:53;19.70;;;4.00;;
22449;SDS011;11392;57.390;-2.468;2023-04-01T19:33:22;19.73;;;4.50;;
22449;SDS011;11392;57.390;-2.468;2023-04-01T19:36:20;12.25;;;4.50;;
22449;SDS011;11392;57.390;-2.468;2023-04-01T19:46:55;16.20;;;4.38;;
22449;SDS011;11392;57.390;-2.468;2023-04-01T20:00:59;9.68;;;3.25;;
22449;SDS011;11392;57.390;-2.468;2023-04-01T20:06:14;11.68;;;3.58;;
22449;SDS011;11392;57.390;-2.468;2023-04-01T20:14:33;10.75;;;3.95;;
22449;SDS011;11392;57.390;-2.468;2023-04-01T20:17:17;13.95;;;5.72;;
22449;SDS011;11392;57.390;-2.468;2023-04-01T20:25:04;13.75;;;4.32;;
22449;SDS011;11392;57.390;-2.468;2023-04-01T20:27:41;26.40;;;5.43;;
22449;SDS011;11392;57.390;-2.468;2023-04-01T20:38:41;15.02;;;5.18;;
22449;SDS011;11392;57.390;-2.468;2023-04-01T20:44:41;17.63;;;5.13;;
22449;SDS011;11392;57.390;-2.468;2023-04-01T20:53:01;14.25;;;3.80;;
22449;SDS011;11392;57.390;-2.468;2023-04-01T20:56:13;23.20;;;5.57;;
22449;SDS011;11392;57.390;-2.468;2023-04-01T21:01:51;23.83;;;5.40;;
22449;SDS011;11392;57.390;-2.468;2023-04-01T21:07:14;18.13;;;4.63;;
22449;SDS011;11392;57.390;-2.468;2023-04-01T21:10:06;13.43;;;3.47;;
22449;SDS011;11392;57.390;-2.468;2023-04-01T21:13:02;13.05;;;4.10;;
22449;SDS011;11392;57.390;-2.468;2023-04-01T21:27:06;12.88;;;4.10;;
22449;SDS011;11392;57.390;-2.468;2023-04-01T21:32:42;11.63;;;4.05;;
22449;SDS011;11392;57.390;-2.468;2023-04-01T21:38:12;9.70;;;3.70;;
22449;SDS011;11392;57.390;-2.468;2023-04-01T21:41:11;19.48;;;4.45;;
22449;SDS011;11392;57.390;-2.468;2023-04-01T22:04:06;15.02;;;4.82;;
22449;SDS011;11392;57.390;-2.468;2023-04-01T22:07:19;9.25;;;3.20;;
22449;SDS011;11392;57.390;-2.468;2023-04-01T22:12:37;14.35;;;4.43;;
22449;SDS011;11392;57.390;-2.468;2023-04-01T22:21:05;15.02;;;4.82;;
22449;SDS011;11392;57.390;-2.468;2023-04-01T22:31:32;12.23;;;4.05;;
22449;SDS011;11392;57.390;-2.468;2023-04-01T22:42:11;11.95;;;3.78;;
22449;SDS011;11392;57.390;-2.468;2023-04-01T22:45:10;7.03;;;3.00;;
22449;SDS011;11392;57.390;-2.468;2023-04-01T22:48:01;10.07;;;3.60;;
22449;SDS011;11392;57.390;-2.468;2023-04-01T22:50:50;7.97;;;3.05;;
22449;SDS011;11392;57.390;-2.468;2023-04-01T22:56:04;6.28;;;3.10;;
22449;SDS011;11392;57.390;-2.468;2023-04-01T22:58:38;16.67;;;5.30;;
22449;SDS011;11392;57.390;-2.468;2023-04-01T23:01:16;9.00;;;3.20;;
22449;SDS011;11392;57.390;-2.468;2023-04-01T23:03:49;11.23;;;4.57;;
22449;SDS011;11392;57.390;-2.468;2023-04-01T23:06:22;9.63;;;3.33;;
22449;SDS011;11392;57.390;-2.468;2023-04-01T23:19:40;23.45;;;4.95;;
22449;SDS011;11392;57.390;-2.468;2023-04-01T23:22:15;11.48;;;3.97;;
22449;SDS011;11392;57.390;-2.468;2023-04-01T23:24:50;14.18;;;4.63;;
22449;SDS011;11392;57.390;-2.468;2023-04-01T23:27:28;13.77;;;4.20;;
22449;SDS011;11392;57.390;-2.468;2023-04-01T23:30:01;10.77;;;4.15;;
22449;SDS011;11392;57.390;-2.468;2023-04-01T23:32:29;17.13;;;5.75;;
22449;SDS011;11392;57.390;-2.468;2023-04-01T23:34:57;24.25;;;6.25;;
22449;SDS011;11392;57.390;-2.468;2023-04-01T23:37:25;17.20;;;4.80;;
22449;SDS011;11392;57.390;-2.468;2023-04-01T23:39:57;30.02;;;6.40;;
22449;SDS011;11392;57.390;-2.468;2023-04-01T23:42:26;21.83;;;5.95;;
22449;SDS011;11392;57.390;-2.468;2023-04-01T23:45:03;23.77;;;5.75;;
22449;SDS011;11392;57.390;-2.468;2023-04-01T23:50:09;21.00;;;5.25;;
22449;SDS011;11392;57.390;-2.468;2023-04-01T23:52:48;16.95;;;5.28;;
22449;SDS011;11392;57.390;-2.468;2023-04-01T23:55:22;23.80;;;6.32;;
